createdAt,value
2022-11-09T00:01:38.024Z,13.34
2022-11-09T00:06:39.511Z,13.27
2022-11-09T00:11:40.887Z,13.19
2022-11-09T00:16:42.347Z,13.22
2022-11-09T00:21:43.694Z,13.33
2022-11-09T00:26:45.070Z,13.29
2022-11-09T00:31:46.464Z,13.13
2022-11-09T00:36:47.840Z,13.06
2022-11-09T00:41:49.189Z,12.97
2022-11-09T00:46:50.948Z,12.86
2022-11-09T00:51:52.395Z,12.86
2022-11-09T00:56:53.789Z,12.73
2022-11-09T01:01:55.186Z,12.73
2022-11-09T01:06:56.691Z,12.77
2022-11-09T01:11:58.157Z,12.70
2022-11-09T01:16:59.518Z,12.67
2022-11-09T01:22:00.862Z,12.75
2022-11-09T01:27:02.218Z,12.82
2022-11-09T01:32:03.896Z,12.88
2022-11-09T01:37:05.478Z,12.93
2022-11-09T01:42:06.834Z,12.85
2022-11-09T01:47:23.230Z,12.90
2022-11-09T01:52:32.081Z,12.89
2022-11-09T01:57:38.385Z,12.94
2022-11-09T02:02:55.283Z,13.09
2022-11-09T02:07:58.289Z,13.16
2022-11-09T02:13:00.454Z,13.15
2022-11-09T02:18:03.787Z,13.22
2022-11-09T02:23:05.818Z,13.29
2022-11-09T02:28:07.976Z,13.34
2022-11-09T02:33:09.354Z,13.43
2022-11-09T02:38:12.678Z,13.49
2022-11-09T02:43:15.459Z,13.62
2022-11-09T02:48:17.018Z,13.72
2022-11-09T02:53:18.682Z,13.79
2022-11-09T02:58:20.253Z,13.78
2022-11-09T03:03:24.411Z,13.79
2022-11-09T03:08:25.821Z,13.77
2022-11-09T03:13:27.219Z,13.77
2022-11-09T03:18:28.545Z,13.82
2022-11-09T03:23:30.155Z,13.82
2022-11-09T03:28:31.522Z,13.83
2022-11-09T03:33:33.005Z,13.86
2022-11-09T03:38:34.628Z,13.84
2022-11-09T03:43:35.992Z,13.80
2022-11-09T03:48:37.386Z,13.73
2022-11-09T03:53:38.738Z,13.82
2022-11-09T03:58:40.118Z,13.96
2022-11-09T04:03:41.569Z,14.06
2022-11-09T04:08:47.006Z,14.11
2022-11-09T04:13:51.417Z,14.16
2022-11-09T04:18:52.818Z,14.15
2022-11-09T04:23:54.152Z,14.27
2022-11-09T04:28:55.507Z,14.27
2022-11-09T04:33:56.895Z,14.28
2022-11-09T04:38:58.266Z,14.31
2022-11-09T04:43:59.617Z,14.28
2022-11-09T04:49:01.134Z,14.33
2022-11-09T04:54:02.496Z,14.41
2022-11-09T04:59:03.857Z,14.37
2022-11-09T05:04:05.249Z,14.35
2022-11-09T05:09:07.622Z,14.43
2022-11-09T05:14:09.003Z,14.41
2022-11-09T05:19:10.329Z,14.44
2022-11-09T05:24:11.847Z,14.41
2022-11-09T05:29:13.542Z,14.37
2022-11-09T05:34:15.135Z,14.32
2022-11-09T05:39:16.485Z,14.37
2022-11-09T05:44:17.864Z,14.35
2022-11-09T05:49:19.203Z,14.44
2022-11-09T05:54:20.533Z,14.51
2022-11-09T05:59:21.937Z,14.53
2022-11-09T06:04:23.294Z,14.52
2022-11-09T06:09:24.704Z,14.55
2022-11-09T06:14:26.099Z,14.54
2022-11-09T06:19:27.469Z,14.53
2022-11-09T06:24:29.032Z,14.51
2022-11-09T06:29:30.387Z,14.55
2022-11-09T06:34:31.789Z,14.48
2022-11-09T06:39:33.127Z,14.43
2022-11-09T06:44:34.470Z,14.43
2022-11-09T06:49:35.885Z,14.42
2022-11-09T06:54:37.232Z,14.42
2022-11-09T06:59:38.584Z,14.39
2022-11-09T07:04:39.931Z,14.35
2022-11-09T07:09:41.286Z,14.34
2022-11-09T07:14:42.659Z,14.38
2022-11-09T07:19:43.988Z,14.40
2022-11-09T07:24:45.453Z,14.38
2022-11-09T07:29:46.810Z,14.39
2022-11-09T07:34:48.227Z,14.49
2022-11-09T07:39:49.594Z,14.53
2022-11-09T07:44:51.297Z,14.57
2022-11-09T07:49:52.665Z,14.69
2022-11-09T07:54:54.029Z,14.66
2022-11-09T07:59:55.454Z,14.64
2022-11-09T08:04:56.857Z,14.62
2022-11-09T08:09:58.461Z,14.70
2022-11-09T08:14:59.799Z,14.73
2022-11-09T08:20:01.177Z,14.76
2022-11-09T08:25:02.596Z,14.73
2022-11-09T08:30:04.299Z,14.81
2022-11-09T08:35:06.190Z,14.82
2022-11-09T08:40:08.926Z,14.83
2022-11-09T08:45:11.303Z,14.95
2022-11-09T08:50:14.498Z,14.96
2022-11-09T08:55:15.962Z,15.05
2022-11-09T09:00:17.664Z,15.08
2022-11-09T09:05:19.855Z,15.06
2022-11-09T09:10:21.306Z,15.11
2022-11-09T09:15:23.149Z,15.16
2022-11-09T09:20:24.524Z,15.15
2022-11-09T09:25:26.875Z,15.22
2022-11-09T09:30:28.324Z,15.31
2022-11-09T09:35:29.754Z,15.34
2022-11-09T09:40:43.549Z,15.26
2022-11-09T09:45:51.704Z,15.26
2022-11-09T09:50:57.364Z,15.31
2022-11-09T09:56:17.042Z,15.38
2022-11-09T10:01:23.925Z,15.43
2022-11-09T10:06:46.299Z,15.49
2022-11-09T10:12:14.469Z,15.56
2022-11-09T10:17:45.478Z,15.63
2022-11-09T10:23:20.931Z,15.73
2022-11-09T10:28:27.197Z,15.86
2022-11-09T10:33:28.953Z,15.86
2022-11-09T10:38:40.085Z,15.99
2022-11-09T10:43:41.450Z,16.12
2022-11-09T10:48:42.888Z,16.20
2022-11-09T10:53:44.315Z,16.30
2022-11-09T10:58:49.083Z,16.42
2022-11-09T11:03:53.171Z,16.45
2022-11-09T11:08:57.338Z,16.54
2022-11-09T11:14:28.983Z,16.63
2022-11-09T11:19:41.346Z,16.60
2022-11-09T11:24:42.713Z,16.73
2022-11-09T11:29:51.952Z,16.74
2022-11-09T11:35:00.392Z,16.71
2022-11-09T11:40:15.872Z,16.77
2022-11-09T11:45:42.058Z,16.76
2022-11-09T11:51:15.984Z,16.72
2022-11-09T11:56:17.296Z,16.88
2022-11-09T12:01:53.852Z,16.92
2022-11-09T12:07:12.864Z,17.19
2022-11-09T12:12:40.870Z,17.38
2022-11-09T12:18:15.309Z,17.43
2022-11-09T12:23:22.813Z,17.60
2022-11-09T12:28:55.878Z,17.60
2022-11-09T12:34:03.154Z,17.67
2022-11-09T12:39:37.603Z,17.60
2022-11-09T12:45:12.184Z,17.62
2022-11-09T12:50:18.183Z,17.71
2022-11-09T12:55:36.333Z,17.78
2022-11-09T13:00:44.260Z,17.74
2022-11-09T13:05:47.529Z,17.66
2022-11-09T13:11:08.472Z,17.55
2022-11-09T13:16:19.088Z,17.53
2022-11-09T13:21:23.214Z,17.53
2022-11-09T13:26:30.734Z,17.59
2022-11-09T13:32:09.688Z,17.71
2022-11-09T13:37:41.802Z,17.69
2022-11-09T13:42:43.271Z,17.67
2022-11-09T13:47:51.956Z,17.63
2022-11-09T13:52:55.546Z,17.58
2022-11-09T13:58:04.723Z,17.57
2022-11-09T14:03:26.478Z,17.41
2022-11-09T14:08:30.638Z,17.19
2022-11-09T14:14:03.280Z,17.07
2022-11-09T14:19:23.018Z,17.14
2022-11-09T14:24:34.519Z,17.20
2022-11-09T14:29:37.916Z,17.15
2022-11-09T14:34:39.258Z,17.15
2022-11-09T14:39:40.947Z,17.16
2022-11-09T14:44:43.996Z,17.09
2022-11-09T14:49:46.090Z,16.93
2022-11-09T14:54:49.347Z,16.61
2022-11-09T14:59:50.939Z,16.57
2022-11-09T15:04:54.399Z,16.46
2022-11-09T15:10:01.684Z,16.37
2022-11-09T15:15:06.664Z,16.29
2022-11-09T15:20:07.964Z,16.32
2022-11-09T15:25:20.834Z,16.20
2022-11-09T15:30:31.681Z,16.14
2022-11-09T15:35:33.052Z,16.17
2022-11-09T15:40:34.385Z,16.06
2022-11-09T15:45:35.749Z,16.13
2022-11-09T15:50:37.333Z,16.04
2022-11-09T15:55:38.758Z,15.97
2022-11-09T16:00:40.247Z,15.94
2022-11-09T16:05:41.649Z,15.96
2022-11-09T16:10:44.369Z,15.94
2022-11-09T16:15:45.758Z,15.90
2022-11-09T16:20:47.377Z,15.82
2022-11-09T16:25:48.800Z,15.72
2022-11-09T16:30:50.210Z,15.70
2022-11-09T16:35:53.681Z,15.61
2022-11-09T16:40:55.095Z,15.45
2022-11-09T16:45:57.155Z,15.48
2022-11-09T16:50:58.705Z,15.44
2022-11-09T16:56:00.113Z,15.40
2022-11-09T17:01:11.314Z,15.41
2022-11-09T17:06:14.099Z,15.43
2022-11-09T17:11:15.571Z,15.41
2022-11-09T17:16:20.208Z,15.38
2022-11-09T17:21:23.213Z,15.34
2022-11-09T17:26:25.781Z,15.29
2022-11-09T17:31:27.178Z,15.28
2022-11-09T17:36:56.827Z,15.25
2022-11-09T17:41:50.408Z,15.16
2022-11-09T17:46:52.055Z,15.09
2022-11-09T17:51:53.553Z,15.08
2022-11-09T17:56:55.129Z,15.01
2022-11-09T18:01:56.521Z,14.96
2022-11-09T18:06:58.033Z,14.93
2022-11-09T18:11:59.466Z,14.97
2022-11-09T18:17:01.566Z,14.98
2022-11-09T18:22:04.877Z,15.07
2022-11-09T18:27:08.007Z,15.05
2022-11-09T18:32:09.448Z,15.04
2022-11-09T18:37:10.852Z,14.93
2022-11-09T18:42:12.394Z,14.98
2022-11-09T18:47:15.049Z,14.95
2022-11-09T18:52:16.437Z,14.97
2022-11-09T18:57:20.021Z,14.96
2022-11-09T19:02:21.641Z,14.88
2022-11-09T19:07:23.007Z,14.93
2022-11-09T19:12:25.055Z,14.87
2022-11-09T19:17:26.463Z,14.86
2022-11-09T19:22:29.099Z,14.75
2022-11-09T19:27:30.468Z,14.74
2022-11-09T19:32:31.909Z,14.72
2022-11-09T19:37:33.288Z,14.71
2022-11-09T19:42:34.653Z,14.63
2022-11-09T19:47:36.010Z,14.62
2022-11-09T19:52:38.765Z,14.66
2022-11-09T19:57:40.134Z,14.62
2022-11-09T20:02:41.488Z,14.58
2022-11-09T20:07:43.470Z,14.55
2022-11-09T20:12:50.542Z,14.55
2022-11-09T20:17:52.257Z,14.54
2022-11-09T20:22:53.605Z,14.41
2022-11-09T20:27:56.097Z,14.38
2022-11-09T20:32:57.477Z,14.34
2022-11-09T20:37:58.980Z,14.25
2022-11-09T20:43:00.316Z,14.23
2022-11-09T20:48:14.792Z,14.16
2022-11-09T20:53:23.009Z,14.17
2022-11-09T20:58:26.729Z,14.23
2022-11-09T21:03:28.149Z,14.15
2022-11-09T21:08:29.579Z,14.15
2022-11-09T21:13:31.645Z,14.18
2022-11-09T21:18:33.384Z,14.18
2022-11-09T21:23:54.784Z,14.13
2022-11-09T21:29:14.812Z,14.13
2022-11-09T21:34:16.220Z,14.06
2022-11-09T21:39:17.585Z,14.04
2022-11-09T21:44:19.038Z,13.96
2022-11-09T21:49:20.381Z,13.87
2022-11-09T21:54:22.640Z,13.80
2022-11-09T21:59:24.462Z,13.71
2022-11-09T22:04:25.853Z,13.78
2022-11-09T22:09:32.414Z,13.78
2022-11-09T22:14:55.713Z,13.69
2022-11-09T22:20:15.717Z,13.63
2022-11-09T22:25:17.181Z,13.57
2022-11-09T22:30:18.680Z,13.52
2022-11-09T22:35:20.086Z,13.42
2022-11-09T22:40:21.815Z,13.34
2022-11-09T22:45:23.155Z,13.25
2022-11-09T22:50:24.546Z,13.13
2022-11-09T22:55:25.926Z,13.03
2022-11-09T23:00:27.322Z,12.95
2022-11-09T23:05:28.950Z,12.79
2022-11-09T23:10:30.397Z,12.72
2022-11-09T23:15:31.846Z,12.62
2022-11-09T23:20:35.700Z,12.55
2022-11-09T23:25:56.417Z,12.52
2022-11-09T23:31:07.192Z,12.46
2022-11-09T23:36:09.217Z,12.41
2022-11-09T23:41:12.479Z,12.36
2022-11-09T23:46:14.580Z,12.33
2022-11-09T23:51:18.387Z,12.25
2022-11-09T23:56:21.150Z,12.24
